Terminal Aerodrome Forecast
Issued by NWS

Home | Current Version | Previous Version | Text Only | Print | Product List | Glossary On
Versions: 1 2 3 4 5 6 7 8 9 10 11 12 13 14 15 16 17 18 19 20 21 22 23 24
799
FTUS46 KEKA 260924 AAA
TAFCEC
TAF AMD
KCEC 260924Z 2609/2706 15009KT P6SM SCT013
     FM261600 14005KT 6SM BR SCT007 BKN015
     FM261800 15011KT P6SM SCT015 BKN025=

USA.gov is the U.S. government's official web portal to all federal, state and local government web resources and services.